FW2861 Weather Reports


Display with metric or nautical units.
time (UTC)temp
F
wind
direction
speed
MPH
gust
MPH
rain 1hr
in
rain 24hr
in
rain mn
in
humidity
%
barometer
mb
20240530130311 54 0 3.0 12.0 0.43 0.61 0.61 99 1010.7
20240530125811 54 28 4.0 12.0 0.40 0.57 0.57 99 1010.7
20240530125313 54 0 3.0 9.0 0.37 0.54 0.54 99 1010.9
20240530125033 54 74 1.0 10.0 0.33 0.50 0.50 99 1010.5
20240530124311 55 359 5.0 13.0 0.30 0.47 0.47 99 1010.5
20240530123812 55 358 4.0 13.0 0.28 0.43 0.43 99 1010.5
20240530123311 55 0 0.0 7.0 0.21 0.36 0.37 99 1010.5
20240530122811 55 0 1.0 7.0 0.10 0.24 0.24 99 1010.7
20240530122311 55 83 0.0 13.0 0.09 0.23 0.23 99 1010.5
20240530121811 55 33 3.0 13.0 0.09 0.22 0.22 99 1010.0
20240530121317 56 15 4.0 9.0 0.07 0.19 0.20 99 1009.9
20240530120811 56 13 4.0 9.0 0.06 0.18 0.18 99 1009.5
20240530120534 56 28 7.0 10.0 0.07 0.18 0.18 99 1009.7
20240530115811 56 70 3.0 10.0 0.06 0.18 0.18 99 1009.5
20240530115311 56 11 0.0 10.0 0.07 0.18 0.18 99 1009.4
20240530114811 56 30 4.0 12.0 0.07 0.17 0.17 99 1009.3
20240530114311 57 16 3.0 12.0 0.07 0.17 0.17 99 1009.5
20240530114030 57 16 4.0 12.0 0.05 0.15 0.15 99 1009.3
20240530113754 57 28 12.0 12.0 0.05 0.15 0.15 98 1009.4
20240530112811 57 332 2.0 10.0 0.05 0.14 0.14 99 1009.3
20240530112311 57 4 4.0 10.0 0.05 0.14 0.14 98 1009.2
20240530111811 57 21 3.0 8.0 0.04 0.13 0.13 99 1009.3
20240530111311 58 21 2.0 11.0 0.04 0.12 0.12 98 1009.2
20240530110811 58 33 3.0 11.0 0.04 0.12 0.12 98 1009.0
20240530110312 58 345 2.0 9.0 0.03 0.11 0.11 98 1009.0
20240530105811 58 32 2.0 6.0 0.04 0.11 0.11 98 1009.0
20240530105311 58 328 0.0 9.0 0.03 0.11 0.11 98 1009.2
20240530104813 58 0 2.0 9.0 0.03 0.11 0.11 98 1009.0
20240530104311 58 29 5.0 9.0 0.03 0.10 0.10 98 1009.0
20240530103812 58 1 6.0 11.0 0.03 0.10 0.10 98 1009.1
20240530103311 58 0 3.0 11.0 0.02 0.10 0.10 98 1008.9
20240530102811 58 331 1.0 10.0 0.02 0.09 0.09 98 1008.7
20240530102311 58 35 2.0 9.0 0.01 0.09 0.09 98 1009.1
20240530102032 58 45 2.0 7.0 0.02 0.09 0.09 98 1009.0
20240530101312 58 41 3.0 8.0 0.01 0.08 0.08 98 1008.9
20240530100812 58 315 3.0 8.0 0.02 0.08 0.08 98 1009.0
20240530100313 58 300 0.0 5.0 0.03 0.08 0.08 98 1008.8
20240530095810 58 37 3.0 6.0 0.03 0.08 0.08 98 1008.7
20240530095310 58 345 1.0 7.0 0.05 0.08 0.08 97 1008.7
20240530094810 58 14 4.0 7.0 0.06 0.07 0.07 97 1009.0
20240530094311 58 3 3.0 6.0 0.06 0.07 0.07 97 1009.0
20240530093811 58 40 2.0 6.0 0.07 0.07 0.07 97 1008.5
20240530093310 58 345 0.0 8.0 0.07 0.07 0.07 97 1008.9
20240530092809 58 0 5.0 8.0 0.07 0.07 0.07 97 1008.7
20240530092309 58 23 1.0 5.0 0.07 0.07 0.07 97 1009.1
20240530091809 58 63 0.0 4.0 0.07 0.07 0.07 97 1008.9
20240530091309 59 19 2.0 6.0 0.07 0.07 0.07 97 1008.8
20240530090809 59 17 3.0 6.0 0.06 0.06 0.06 97 1008.7
20240530090310 59 27 4.0 6.0 0.06 0.06 0.06 96 1008.9
20240530085810 59 0 2.0 7.0 0.05 0.05 0.05 96 1009.0
20240530085308 59 42 3.0 7.0 0.03 0.03 0.03 96 1008.9
20240530084810 60 325 0.0 9.0 0.02 0.02 0.02 95 1008.9
20240530084310 60 45 0.0 9.0 0.01 0.01 0.01 94 1008.8
20240530083809 60 29 6.0 9.0 0.01 0.01 0.01 94 1008.7
20240530083309 60 249 2.0 4.0 0.00 0.00 0.00 94 1009.0
20240530082809 60 29 2.0 4.0 0.00 0.00 0.00 94 1008.9
20240530082309 60 26 3.0 6.0 0.00 0.00 0.00 94 1008.9
20240530081809 60 30 2.0 6.0 0.00 0.00 0.00 94 1008.8
20240530081311 60 24 4.0 5.0 0.00 0.00 0.00 94 1008.9
20240530080811 60 42 3.0 7.0 0.00 0.00 0.00 94 1009.0
20240530080311 60 14 2.0 7.0 0.00 0.00 0.00 94 1008.6
20240530080029 60 192 4.0 7.0 0.00 0.00 0.00 93 1009.0
20240530075309 60 84 2.0 7.0 0.00 0.00 0.00 93 1008.9
20240530074809 60 105 3.0 9.0 0.00 0.00 0.00 93 1009.0
20240530074309 60 81 2.0 9.0 0.00 0.00 0.00 93 1009.1
20240530073809 60 90 0.0 4.0 0.00 0.00 0.00 93 1008.8
20240530073311 60 3 3.0 8.0 0.00 0.00 0.00 93 1008.8
20240530072809 60 4 2.0 8.0 0.00 0.00 0.00 93 1008.8
20240530072308 60 350 3.0 6.0 0.00 0.00 0.00 93 1008.7
20240530071810 60 26 4.0 4.0 0.00 0.00 0.00 93 1008.6
20240530071309 60 94 3.0 6.0 0.00 0.00 0.00 93 1008.9
20240530070809 60 355 2.0 6.0 0.00 0.00 0.00 93 1008.5
20240530070308 60 29 2.0 5.0 0.00 0.00 0.00 93 1008.9
20240530065809 60 145 0.0 5.0 0.00 0.00 0.00 93 1008.9
20240530065309 60 344 0.0 5.0 0.00 0.00 0.00 93 1008.9
20240530064809 60 26 0.0 5.0 0.00 0.00 0.00 93 1009.2
20240530064309 60 106 1.0 5.0 0.00 0.00 0.00 93 1009.1
20240530063809 60 45 2.0 5.0 0.00 0.00 0.00 93 1009.1
20240530063311 60 15 3.0 4.0 0.00 0.00 0.00 93 1009.3
20240530063034 60 0 2.0 3.0 0.00 0.00 0.00 93 1009.2
20240530062309 60 0 0.0 4.0 0.00 0.00 0.00 93 1009.3
20240530061809 60 23 0.0 6.0 0.00 0.00 0.00 93 1009.2
20240530061309 60 108 4.0 7.0 0.00 0.00 0.00 93 1009.0
20240530060810 60 75 1.0 7.0 0.00 0.00 0.00 94 1009.0
20240530060309 60 119 4.0 6.0 0.00 0.00 0.00 94 1009.1
20240530055809 60 23 0.0 6.0 0.00 0.00 0.00 94 1009.3
20240530055309 60 0 1.0 6.0 0.00 0.00 0.00 94 1009.2
20240530055030 60 99 2.0 6.0 0.00 0.00 0.00 95 1009.1
20240530054309 60 105 6.0 7.0 0.00 0.00 0.00 95 1009.3
20240530053809 60 127 0.0 7.0 0.00 0.00 0.00 95 1009.4
20240530053309 60 90 5.0 6.0 0.00 0.00 0.00 96 1009.2
20240530052809 60 90 3.0 4.0 0.00 0.00 0.00 96 1009.1
20240530052310 60 140 0.0 4.0 0.00 0.00 0.00 96 1009.2
20240530051810 60 119 3.0 4.0 0.00 0.00 0.00 96 1009.2
20240530051310 60 90 0.0 4.0 0.00 0.00 0.00 96 1009.2
20240530050810 60 109 0.0 2.0 0.00 0.00 0.00 96 1009.1
20240530050628 60 200 0.0 2.0 0.00 0.00 0.00 96 1009.1
20240530050518 60 270 0.0 4.0 0.00 0.00 0.00 96 1008.8
20240530045310 60 334 2.0 4.0 0.00 0.00 0.00 95 1008.9
20240530045031 60 5 2.0 4.0 0.00 0.00 0.00 95 1009.0
20240530044310 60 74 0.0 2.0 0.00 0.00 0.00 95 1009.1
20240530043809 60 77 0.0 4.0 0.00 0.00 0.00 94 1009.4
20240530043309 60 188 0.0 4.0 0.00 0.00 0.00 94 1009.1
20240530042811 60 337 0.0 3.0 0.00 0.00 0.00 94 1009.3
20240530042532 60 5 2.0 2.0 0.00 0.00 0.00 93 1009.3
20240530041811 60 168 0.0 2.0 0.00 0.00 0.00 93 1009.3
20240530041309 60 200 2.0 4.0 0.00 0.00 0.00 93 1009.2
20240530041032 60 354 0.0 4.0 0.00 0.00 0.00 93 1009.4
20240530040537 60 30 3.0 5.0 0.00 0.00 0.00 92 1009.3
20240530035809 61 45 3.0 5.0 0.00 0.00 0.00 92 1009.4
20240530035533 61 82 1.0 4.0 0.00 0.00 0.00 91 1009.3
20240530034809 61 22 2.0 4.0 0.00 0.00 0.00 91 1009.2
20240530034311 61 26 0.0 4.0 0.00 0.00 0.00 91 1009.3
20240530033811 61 30 3.0 5.0 0.00 0.00 0.00 90 1009.3
20240530033310 62 102 2.0 5.0 0.00 0.00 0.00 90 1009.1
20240530033030 62 22 0.0 4.0 0.00 0.00 0.00 90 1009.1
20240530032309 62 262 1.0 3.0 0.00 0.00 0.00 90 1009.0
20240530031810 62 203 0.0 3.0 0.00 0.00 0.00 90 1009.2
20240530031309 62 243 0.0 4.0 0.00 0.00 0.00 91 1008.9
20240530030810 62 340 0.0 4.0 0.00 0.00 0.00 90 1009.0
20240530030309 62 35 2.0 4.0 0.00 0.00 0.00 90 1008.9
20240530030029 62 56 0.0 6.0 0.00 0.00 0.00 89 1009.0
20240530025300 62 345 0.0 7.0 0.00 0.00 0.00 89 1008.9
20240530024800 63 0 2.0 7.0 0.00 0.00 0.00 88 1008.9
20240530024301 63 90 1.0 6.0 0.00 0.00 0.00 87 1008.9
20240530023759 64 15 1.0 6.0 0.00 0.00 0.00 86 1009.0
20240530023300 64 26 0.0 9.0 0.00 0.00 0.00 85 1009.0
20240530022759 65 324 2.0 9.0 0.00 0.00 0.00 83 1008.9
20240530022259 67 35 3.0 4.0 0.00 0.00 0.00 80 1008.9
20240530021800 67 45 0.0 2.0 0.00 0.00 0.00 79 1008.8
20240530021300 67 285 0.0 3.0 0.00 0.00 0.00 78 1008.9
20240530020800 67 180 0.0 3.0 0.00 0.00 0.00 78 1008.7
20240530020300 67 180 0.0 3.0 0.00 0.00 0.00 78 1008.7
20240530015757 68 187 0.0 3.0 0.00 0.00 0.00 78 1008.9
20240530015257 68 60 0.0 5.0 0.00 0.00 0.00 77 1008.6
20240530014758 68 307 0.0 5.0 0.00 0.00 0.00 77 1008.7
20240530014258 68 233 3.0 5.0 0.00 0.00 0.00 77 1008.6
20240530013758 68 161 2.0 5.0 0.00 0.00 0.00 77 1008.6
20240530013258 68 183 3.0 4.0 0.00 0.00 0.00 77 1008.8
20240530012759 68 160 2.0 4.0 0.00 0.00 0.00 77 1008.7
20240530012258 68 157 0.0 5.0 0.00 0.00 0.00 78 1008.9
20240530011758 68 240 0.0 5.0 0.00 0.00 0.00 77 1008.6
20240530011257 68 90 0.0 5.0 0.00 0.00 0.00 77 1008.5
20240530010757 68 165 0.0 5.0 0.00 0.00 0.00 77 1008.5
20240530010515 68 197 4.0 4.0 0.00 0.00 0.00 77 1008.3
20240530005757 68 222 3.0 6.0 0.00 0.00 0.00 76 1008.3
20240530005258 68 99 0.0 6.0 0.00 0.00 0.00 76 1008.3
20240530004758 68 112 0.0 6.0 0.00 0.00 0.00 75 1008.5
20240530004526 68 140 3.0 5.0 0.00 0.00 0.00 75 1008.6
20240530004243 69 240 2.0 5.0 0.00 0.00 0.00 74 1008.4
20240530003258 69 173 0.0 5.0 0.00 0.00 0.00 74 1008.4
20240530003241 69 117 3.0 7.0 0.00 0.00 0.00 73 1008.3
20240530002257 69 4 2.0 8.0 0.00 0.00 0.00 73 1008.2
20240530001758 69 117 3.0 8.0 0.00 0.00 0.00 73 1008.4
20240530001258 69 82 0.0 4.0 0.00 0.00 0.00 73 1008.5
20240530000758 69 57 0.0 3.0 0.00 0.00 0.00 72 1008.3
20240530000521 69 261 0.0 3.0 0.00 0.00 0.00 72 1008.3
20240530000021 69 208 3.0 4.0 0.00 0.00 0.00 72 1008.1
20240529235516 69 73 2.0 4.0 0.00 0.00 0.00 71 1008.2
20240529234757 69 114 2.0 3.0 0.00 0.00 0.00 70 1008.3
20240529234258 69 90 0.0 5.0 0.00 0.00 0.00 70 1008.2
20240529233758 70 353 1.0 5.0 0.00 0.00 0.00 69 1008.2
20240529233259 70 121 5.0 5.0 0.00 0.00 0.00 68 1008.2
20240529232759 70 77 3.0 6.0 0.00 0.00 0.00 68 1008.4
20240529232258 70 180 0.0 6.0 0.00 0.00 0.00 68 1008.5
20240529232016 70 167 3.0 7.0 0.00 0.00 0.00 67 1008.3
20240529231259 70 81 0.0 7.0 0.00 0.00 0.00 67 1008.2
20240529230758 71 36 3.0 9.0 0.00 0.00 0.00 66 1008.2
20240529230258 71 90 3.0 9.0 0.00 0.00 0.00 66 1008.4
20240529225758 71 87 4.0 11.0 0.00 0.00 0.00 65 1008.2
20240529225518 71 99 3.0 11.0 0.00 0.00 0.00 65 1008.1
20240529224759 71 90 0.0 7.0 0.00 0.00 0.00 65 1008.1
20240529224258 71 180 2.0 7.0 0.00 0.00 0.00 64 1008.0
20240529223757 72 160 3.0 7.0 0.00 0.00 0.00 63 1007.8
20240529223257 72 57 0.0 8.0 0.00 0.00 0.00 62 1008.1
20240529222756 72 135 0.0 10.0 0.00 0.00 0.00 62 1007.8
20240529222257 73 60 4.0 12.0 0.00 0.00 0.00 61 1007.8
20240529221757 73 206 2.0 12.0 0.00 0.00 0.00 60 1007.9
20240529221257 73 141 3.0 11.0 0.00 0.00 0.00 59 1007.6
20240529221017 74 325 2.0 11.0 0.00 0.00 0.00 56 1007.4
20240529220256 74 99 0.0 5.0 0.00 0.00 0.00 55 1007.5
20240529215756 74 60 2.0 6.0 0.00 0.00 0.00 55 1007.5
20240529215256 75 82 3.0 6.0 0.00 0.00 0.00 54 1007.4
20240529214757 75 80 3.0 7.0 0.00 0.00 0.00 54 1007.3
20240529214257 74 84 6.0 7.0 0.00 0.00 0.00 54 1007.5
20240529213757 75 88 6.0 6.0 0.00 0.00 0.00 53 1007.4
20240529213740 75 235 2.0 5.0 0.00 0.00 0.00 55 1007.4
20240529213019 76 177 3.0 5.0 0.00 0.00 0.00 54 1007.4
20240529212256 75 175 0.0 5.0 0.00 0.00 0.00 56 1007.5
20240529211757 74 260 0.0 5.0 0.00 0.00 0.00 55 1007.5
20240529211525 74 103 0.0 6.0 0.00 0.00 0.00 56 1007.6
20240529210756 75 90 3.0 6.0 0.00 0.00 0.00 56 1007.6
20240529210256 76 118 4.0 8.0 0.00 0.00 0.00 54 1007.2
20240529205757 75 178 0.0 10.0 0.00 0.00 0.00 55 1007.4
20240529205257 75 96 4.0 10.0 0.00 0.00 0.00 56 1007.7
20240529205020 79 65 0.0 3.0 0.00 0.00 0.00 50 1007.4
20240529204257 78 184 0.0 3.0 0.00 0.00 0.00 51 1007.5
20240529203757 76 71 2.0 3.0 0.00 0.00 0.00 53 1007.3
20240529203257 75 69 0.0 6.0 0.00 0.00 0.00 54 1007.6
20240529202757 75 165 2.0 6.0 0.00 0.00 0.00 55 1007.4
20240529202257 75 75 0.0 7.0 0.00 0.00 0.00 54 1007.5
20240529202019 75 79 2.0 7.0 0.00 0.00 0.00 54 1007.6
20240529201300 77 253 2.0 3.0 0.00 0.00 0.00 54 1007.8
20240529201019 75 103 0.0 12.0 0.00 0.00 0.00 57 1007.6
20240529200257 73 45 0.0 12.0 0.00 0.00 0.00 59 1007.6
20240529195757 74 84 4.0 8.0 0.00 0.00 0.00 59 1007.8
20240529195258 76 98 7.0 7.0 0.00 0.00 0.00 54 1007.9
20240529194757 77 257 2.0 6.0 0.00 0.00 0.00 49 1007.8
20240529194257 75 292 0.0 6.0 0.00 0.00 0.00 52 1007.8
20240529193757 75 276 3.0 7.0 0.00 0.00 0.00 51 1008.0
20240529193256 75 248 4.0 7.0 0.00 0.00 0.00 49 1008.0
20240529192757 75 154 2.0 5.0 0.00 0.00 0.00 49 1007.9
20240529192257 76 114 2.0 5.0 0.00 0.00 0.00 49 1007.9
20240529192021 76 189 0.0 7.0 0.00 0.00 0.00 46 1007.8
20240529191256 79 236 5.0 7.0 0.00 0.00 0.00 44 1008.1
20240529190759 78 225 5.0 5.0 0.00 0.00 0.00 48 1008.1
20240529190256 77 274 0.0 8.0 0.00 0.00 0.00 49 1008.2
20240529185756 76 230 4.0 9.0 0.00 0.00 0.00 51 1008.2
20240529185256 76 203 1.0 9.0 0.00 0.00 0.00 50 1008.2
20240529185020 76 233 3.0 9.0 0.00 0.00 0.00 50 1008.3
20240529184257 77 201 3.0 6.0 0.00 0.00 0.00 50 1008.2
20240529183757 77 90 0.0 6.0 0.00 0.00 0.00 51 1008.3
20240529183258 75 96 2.0 4.0 0.00 0.00 0.00 53 1008.4
20240529182756 74 200 2.0 6.0 0.00 0.00 0.00 53 1008.4
20240529182256 74 240 0.0 6.0 0.00 0.00 0.00 55 1008.5
20240529181757 74 8 2.0 3.0 0.00 0.00 0.00 57 1008.5
20240529181516 74 45 2.0 3.0 0.00 0.00 0.00 57 1008.4
20240529181244 74 331 0.0 7.0 0.00 0.00 0.00 59 1008.3
20240529180257 72 12 2.0 7.0 0.00 0.00 0.00 60 1008.4
20240529175757 73 9 5.0 8.0 0.00 0.00 0.00 58 1008.2
20240529175256 74 319 3.0 8.0 0.00 0.00 0.00 57 1008.3
20240529174756 74 24 4.0 8.0 0.00 0.00 0.00 59 1008.4
20240529174256 73 327 3.0 9.0 0.00 0.00 0.00 60 1008.3
20240529173756 74 10 5.0 9.0 0.00 0.00 0.00 55 1008.6
20240529173256 74 8 4.0 7.0 0.00 0.00 0.00 54 1008.5
20240529173019 74 12 6.0 7.0 0.00 0.00 0.00 53 1008.4
20240529172257 74 15 4.0 7.0 0.00 0.00 0.00 52 1008.5
20240529172020 73 0 0.0 5.0 0.00 0.00 0.00 57 1008.6
20240529171256 73 35 2.0 6.0 0.00 0.00 0.00 56 1008.7
20240529171015 73 334 2.0 6.0 0.00 0.00 0.00 54 1008.5
20240529170257 73 7 3.0 6.0 0.00 0.00 0.00 53 1008.7
20240529165756 75 0 2.0 6.0 0.00 0.00 0.00 51 1008.7
20240529165256 76 66 0.0 6.0 0.00 0.00 0.00 48 1008.6
20240529164756 76 0 0.0 4.0 0.00 0.00 0.00 53 1008.5
20240529164256 74 60 2.0 5.0 0.00 0.00 0.00 55 1008.8
20240529163756 73 6 2.0 7.0 0.00 0.00 0.00 54 1008.9
20240529163257 73 58 3.0 7.0 0.00 0.00 0.00 55 1008.8
20240529162758 73 341 3.0 6.0 0.00 0.00 0.00 54 1009.0
20240529162258 74 306 2.0 5.0 0.00 0.00 0.00 55 1008.9
20240529160757 73 7 5.0 5.0 0.00 0.00 0.00 57 1009.1
20240529160257 72 12 0.0 7.0 0.00 0.00 0.00 57 1009.0
20240529155756 72 8 0.0 7.0 0.00 0.00 0.00 58 1008.6
20240529155256 72 14 1.0 7.0 0.00 0.00 0.00 55 1008.9
20240529154756 74 326 2.0 7.0 0.00 0.00 0.00 55 1008.9
20240529154256 72 348 3.0 7.0 0.00 0.00 0.00 61 1009.2
20240529153758 71 19 3.0 6.0 0.00 0.00 0.00 58 1009.0
20240529153257 71 17 2.0 5.0 0.00 0.00 0.00 56 1008.8
20240529152757 72 71 2.0 7.0 0.00 0.00 0.00 58 1008.8
20240529152256 72 148 2.0 8.0 0.00 0.00 0.00 56 1008.8
20240529151756 72 15 2.0 8.0 0.00 0.00 0.00 57 1008.6
20240529151257 74 105 0.0 5.0 0.00 0.00 0.00 55 1008.9
20240529150757 73 52 2.0 5.0 0.00 0.00 0.00 57 1008.6
20240529150519 71 49 0.0 7.0 0.00 0.00 0.00 59 1008.4
20240529145756 71 66 1.0 7.0 0.00 0.00 0.00 58 1008.5
20240529145257 72 30 0.0 6.0 0.00 0.00 0.00 58 1008.5
20240529144757 73 14 0.0 7.0 0.00 0.00 0.00 57 1008.0
20240529144257 73 11 4.0 7.0 0.00 0.00 0.00 58 1007.9
20240529144020 73 0 4.0 9.0 0.00 0.00 0.00 58 1007.9
20240529143257 72 351 4.0 9.0 0.00 0.00 0.00 58 1007.4
20240529142756 72 21 5.0 9.0 0.00 0.00 0.00 58 1007.4
20240529142256 72 4 6.0 9.0 0.00 0.00 0.00 58 1007.4
20240529142013 72 24 2.0 8.0 0.00 0.00 0.00 60 1007.1
20240529141256 72 14 7.0 8.0 0.00 0.00 0.00 60 1007.3
20240529140757 72 341 2.0 8.0 0.00 0.00 0.00 60 1007.0
20240529140257 73 53 4.0 7.0 0.00 0.00 0.00 60 1007.0
20240529135758 72 261 0.0 7.0 0.00 0.00 0.00 60 1007.0
20240529135257 72 25 4.0 7.0 0.00 0.00 0.00 61 1007.1
20240529134757 72 318 0.0 7.0 0.00 0.00 0.00 62 1006.8
20240529134256 73 343 3.0 6.0 0.00 0.00 0.00 60 1007.0
20240529133756 71 11 0.0 7.0 0.00 0.00 0.00 61 1007.1
20240529133257 72 90 3.0 7.0 0.00 0.00 0.00 59 1007.0
20240529132758 72 73 0.0 6.0 0.00 0.00 0.00 60 1006.8
20240529132258 71 28 3.0 7.0 0.00 0.00 0.00 60 1006.8
20240529131758 71 10 5.0 8.0 0.00 0.00 0.00 62 1006.7
20240529131257 70 341 3.0 9.0 0.00 0.00 0.00 62 1006.8
20240529131017 70 39 3.0 9.0 0.00 0.00 0.00 62 1006.8